createdAt,value
2019-05-16T00:00:11.561Z,2.50
2019-05-16T00:02:40.108Z,3.50
2019-05-16T00:05:08.909Z,12.97
2019-05-16T00:07:39.008Z,2.73
2019-05-16T00:10:08.556Z,3.47
2019-05-16T00:12:39.594Z,3.10
2019-05-16T00:15:08.971Z,7.13
2019-05-16T00:17:38.712Z,2.20
2019-05-16T00:20:09.519Z,1.90
2019-05-16T00:22:39.380Z,3.57
2019-05-16T00:25:09.516Z,4.00
2019-05-16T00:27:38.711Z,4.33
2019-05-16T00:30:08.852Z,2.03
2019-05-16T00:32:39.035Z,2.80
2019-05-16T00:35:09.279Z,2.30
2019-05-16T00:37:39.162Z,3.40
2019-05-16T00:40:09.510Z,3.60
2019-05-16T00:42:39.078Z,7.47
2019-05-16T00:45:09.135Z,7.07
2019-05-16T00:47:39.079Z,1.67
2019-05-16T00:50:09.041Z,1.60
2019-05-16T00:52:39.393Z,2.60
2019-05-16T00:55:08.627Z,6.13
2019-05-16T00:57:38.977Z,8.53
2019-05-16T01:00:08.623Z,2.90
2019-05-16T01:02:38.172Z,2.70
2019-05-16T01:05:08.527Z,3.90
2019-05-16T01:07:39.102Z,1.93
2019-05-16T01:10:09.225Z,3.03
2019-05-16T01:12:39.014Z,2.53
2019-05-16T01:15:08.616Z,3.17
2019-05-16T01:17:39.117Z,6.00
2019-05-16T01:20:08.728Z,5.40
2019-05-16T01:22:38.496Z,5.60
2019-05-16T01:25:09.313Z,4.10
2019-05-16T01:27:38.649Z,4.70
2019-05-16T01:30:09.098Z,4.00
2019-05-16T01:32:39.186Z,2.17
2019-05-16T01:35:08.519Z,3.93
2019-05-16T01:37:38.383Z,4.43
2019-05-16T01:40:08.434Z,8.70
2019-05-16T01:42:38.589Z,4.13
2019-05-16T01:45:08.754Z,4.50
2019-05-16T01:47:39.282Z,2.97
2019-05-16T01:50:09.382Z,11.17
2019-05-16T01:52:38.451Z,4.77
2019-05-16T01:55:08.515Z,2.60
2019-05-16T01:57:39.211Z,8.80
2019-05-16T02:00:08.611Z,9.60
2019-05-16T02:03:30.268Z,6.53
2019-05-16T02:05:58.792Z,10.13
2019-05-16T02:08:28.643Z,3.53
2019-05-16T02:10:58.326Z,4.27
2019-05-16T02:13:28.682Z,4.10
2019-05-16T02:15:59.332Z,8.30
2019-05-16T02:18:28.904Z,5.13
2019-05-16T02:20:58.650Z,7.70
2019-05-16T02:23:27.868Z,6.00
2019-05-16T02:25:57.968Z,6.20
2019-05-16T02:28:31.229Z,9.00
2019-05-16T02:30:56.901Z,8.83
2019-05-16T02:33:25.443Z,2.90
2019-05-16T02:35:55.799Z,4.13
2019-05-16T02:38:24.242Z,7.13
2019-05-16T02:40:55.148Z,5.43
2019-05-16T02:43:26.245Z,6.47
2019-05-16T02:45:53.212Z,8.70
2019-05-16T02:48:21.907Z,5.00
2019-05-16T02:50:51.193Z,2.80
2019-05-16T02:53:22.347Z,5.33
2019-05-16T02:55:51.780Z,4.70
2019-05-16T02:58:23.219Z,8.67
2019-05-16T03:00:51.591Z,3.00
2019-05-16T03:03:21.472Z,5.50
2019-05-16T03:05:51.082Z,7.80
2019-05-16T03:08:21.002Z,5.00
2019-05-16T03:10:52.056Z,8.70
2019-05-16T03:13:22.616Z,4.60
2019-05-16T03:15:51.578Z,3.33
2019-05-16T03:18:23.471Z,6.03
2019-05-16T03:20:54.563Z,3.23
2019-05-16T03:23:23.141Z,3.47
2019-05-16T03:25:51.701Z,5.17
2019-05-16T03:28:22.280Z,6.33
2019-05-16T03:30:54.302Z,8.13
2019-05-16T03:33:30.666Z,5.33
2019-05-16T03:35:54.502Z,3.83
2019-05-16T03:38:21.506Z,7.60
2019-05-16T03:40:51.064Z,3.60
2019-05-16T03:43:21.970Z,6.53
2019-05-16T03:45:52.079Z,10.20
2019-05-16T03:48:21.245Z,4.43
2019-05-16T03:50:50.899Z,3.43
2019-05-16T03:53:21.310Z,5.33
2019-05-16T03:55:51.679Z,6.97
2019-05-16T03:58:22.637Z,13.63
2019-05-16T04:00:55.293Z,5.57
2019-05-16T04:03:28.222Z,5.63
2019-05-16T04:05:54.605Z,3.90
2019-05-16T04:08:25.125Z,3.10
2019-05-16T04:10:53.411Z,3.97
2019-05-16T04:13:22.271Z,2.27
2019-05-16T04:15:52.385Z,4.40
2019-05-16T04:18:22.160Z,3.13
2019-05-16T04:20:52.378Z,6.27
2019-05-16T04:23:21.334Z,3.17
2019-05-16T04:25:52.262Z,5.13
2019-05-16T04:28:21.804Z,3.53
2019-05-16T04:30:51.070Z,6.80
2019-05-16T04:33:22.087Z,4.00
2019-05-16T04:35:52.380Z,4.63
2019-05-16T04:38:34.989Z,4.33
2019-05-16T04:40:52.154Z,5.50
2019-05-16T04:43:22.110Z,3.87
2019-05-16T04:45:52.258Z,4.87
2019-05-16T04:48:22.311Z,3.37
2019-05-16T04:50:52.314Z,4.40
2019-05-16T04:53:21.534Z,4.93
2019-05-16T04:55:51.580Z,2.43
2019-05-16T04:58:23.112Z,3.30
2019-05-16T05:00:52.003Z,7.87
2019-05-16T05:03:21.987Z,4.63
2019-05-16T05:05:51.365Z,3.63
2019-05-16T05:08:21.897Z,3.50
2019-05-16T05:10:51.333Z,4.37
2019-05-16T05:13:22.275Z,5.30
2019-05-16T05:15:51.214Z,5.60
2019-05-16T05:18:21.788Z,4.80
2019-05-16T05:20:52.157Z,3.53
2019-05-16T05:23:23.914Z,2.90
2019-05-16T05:25:52.497Z,4.57
2019-05-16T05:28:21.514Z,1.97
2019-05-16T05:30:50.671Z,3.53
2019-05-16T05:33:21.041Z,5.20
2019-05-16T05:35:50.738Z,2.70
2019-05-16T05:38:21.223Z,2.43
2019-05-16T05:40:51.279Z,7.17
2019-05-16T05:43:21.567Z,3.23
2019-05-16T05:45:51.205Z,2.83
2019-05-16T05:48:21.760Z,2.53
2019-05-16T05:50:51.040Z,7.73
2019-05-16T05:53:20.735Z,5.10
2019-05-16T05:55:51.295Z,2.93
2019-05-16T05:58:21.299Z,3.70
2019-05-16T06:00:51.787Z,2.63
2019-05-16T06:03:22.358Z,2.77
2019-05-16T06:05:50.590Z,2.63
2019-05-16T06:08:20.474Z,2.30
2019-05-16T06:10:50.495Z,4.13
2019-05-16T06:13:20.530Z,3.70
2019-05-16T06:15:50.915Z,2.87
2019-05-16T06:18:20.207Z,3.00
2019-05-16T06:20:51.376Z,3.33
2019-05-16T06:23:20.583Z,2.47
2019-05-16T06:25:50.725Z,9.80
2019-05-16T06:28:20.649Z,3.40
2019-05-16T06:34:41.125Z,6.83
2019-05-16T06:37:09.889Z,3.70
2019-05-16T06:39:42.749Z,3.93
2019-05-16T06:42:09.855Z,3.43
2019-05-16T06:44:40.137Z,2.90
2019-05-16T06:47:16.972Z,3.50
2019-05-16T06:49:40.299Z,2.50
2019-05-16T06:52:10.424Z,2.47
2019-05-16T06:54:40.741Z,2.43
2019-05-16T06:57:10.606Z,2.97
2019-05-16T06:59:40.505Z,6.37
2019-05-16T07:02:11.015Z,5.27
2019-05-16T07:04:39.792Z,3.00
2019-05-16T07:07:11.998Z,2.33
2019-05-16T07:09:40.629Z,3.63
2019-05-16T07:12:10.491Z,2.90
2019-05-16T07:14:40.565Z,1.97
2019-05-16T07:17:09.760Z,2.20
2019-05-16T07:19:40.639Z,6.93
2019-05-16T07:22:11.109Z,2.27
2019-05-16T07:24:39.946Z,3.10
2019-05-16T07:27:09.781Z,5.23
2019-05-16T07:29:40.212Z,5.07
2019-05-16T07:32:08.862Z,2.60
2019-05-16T07:34:37.403Z,2.30
2019-05-16T07:37:06.090Z,3.27
2019-05-16T07:39:34.555Z,4.70
2019-05-16T07:42:03.150Z,2.30
2019-05-16T07:44:31.704Z,2.50
2019-05-16T07:47:00.979Z,3.47
2019-05-16T07:49:30.420Z,2.17
2019-05-16T07:52:00.599Z,5.67
2019-05-16T07:54:30.800Z,2.43
2019-05-16T07:57:11.534Z,2.20
2019-05-16T07:59:30.051Z,2.50
2019-05-16T08:02:00.512Z,3.30
2019-05-16T08:04:30.382Z,2.57
2019-05-16T08:07:00.695Z,3.17
2019-05-16T08:09:30.681Z,5.00
2019-05-16T08:12:01.719Z,2.10
2019-05-16T08:14:30.356Z,3.60
2019-05-16T08:17:01.102Z,3.40
2019-05-16T08:19:30.648Z,4.37
2019-05-16T08:22:01.376Z,7.13
2019-05-16T08:24:30.946Z,3.50
2019-05-16T08:27:01.279Z,3.03
2019-05-16T08:29:31.619Z,4.30
2019-05-16T08:32:02.068Z,4.07
2019-05-16T08:34:32.172Z,3.53
2019-05-16T08:37:01.142Z,4.47
2019-05-16T08:39:31.113Z,4.73
2019-05-16T08:42:07.840Z,5.13
2019-05-16T08:44:32.345Z,6.57
2019-05-16T08:47:06.044Z,4.30
2019-05-16T08:49:30.804Z,4.97
2019-05-16T08:52:01.517Z,3.63
2019-05-16T08:54:31.770Z,3.90
2019-05-16T08:57:14.396Z,6.23
2019-05-16T08:59:33.912Z,3.20
2019-05-16T09:02:03.236Z,6.50
2019-05-16T09:04:33.952Z,3.93
2019-05-16T09:07:01.950Z,6.03
2019-05-16T09:09:42.545Z,5.97
2019-05-16T09:12:00.877Z,4.10
2019-05-16T09:14:35.159Z,7.10
2019-05-16T09:16:59.591Z,4.10
2019-05-16T09:19:28.155Z,6.23
2019-05-16T09:21:58.056Z,6.70
2019-05-16T09:24:29.940Z,3.87
2019-05-16T09:26:58.476Z,5.20
2019-05-16T09:29:27.444Z,5.17
2019-05-16T09:32:11.408Z,6.90
2019-05-16T09:34:28.306Z,4.17
2019-05-16T09:37:00.578Z,4.10
2019-05-16T09:39:27.755Z,3.50
2019-05-16T09:41:58.699Z,4.23
2019-05-16T09:44:30.318Z,3.50
2019-05-16T09:46:58.879Z,3.23
2019-05-16T09:49:29.261Z,3.67
2019-05-16T09:51:57.666Z,3.30
2019-05-16T09:54:27.379Z,3.47
2019-05-16T09:56:57.178Z,4.30
2019-05-16T09:59:26.426Z,3.43
2019-05-16T10:01:57.130Z,3.17
2019-05-16T10:04:26.696Z,4.40
2019-05-16T10:06:57.296Z,4.70
2019-05-16T10:09:38.535Z,4.50
2019-05-16T10:12:08.134Z,3.57
2019-05-16T10:14:26.946Z,3.63
2019-05-16T10:16:57.733Z,4.50
2019-05-16T10:19:27.523Z,3.67
2019-05-16T10:22:00.033Z,6.03
2019-05-16T10:24:26.908Z,3.00
2019-05-16T10:26:57.179Z,5.43
2019-05-16T10:29:27.468Z,5.43
2019-05-16T10:31:56.837Z,5.23
2019-05-16T10:34:26.592Z,6.23
2019-05-16T10:36:57.569Z,4.60
2019-05-16T10:39:26.767Z,6.23
2019-05-16T10:41:57.459Z,10.10
2019-05-16T10:44:28.106Z,4.17
2019-05-16T10:46:56.058Z,2.80
2019-05-16T10:49:34.329Z,2.80
2019-05-16T10:51:54.857Z,2.90
2019-05-16T10:54:23.549Z,3.30
2019-05-16T10:56:52.238Z,4.03
2019-05-16T11:01:51.018Z,2.43
2019-05-16T11:04:29.304Z,11.50
2019-05-16T11:06:49.860Z,4.83
2019-05-16T11:09:18.405Z,2.40
2019-05-16T11:11:47.563Z,4.50
2019-05-16T11:14:17.359Z,2.63
2019-05-16T11:16:47.364Z,1.70
2019-05-16T11:19:21.402Z,3.17
2019-05-16T11:21:46.966Z,1.80
2019-05-16T11:24:15.689Z,4.03
2019-05-16T11:26:50.504Z,4.60
2019-05-16T11:29:19.006Z,4.23
2019-05-16T11:31:47.545Z,2.90
2019-05-16T11:34:17.350Z,4.30
2019-05-16T11:36:47.769Z,3.20
2019-05-16T11:39:17.383Z,3.20
2019-05-16T11:41:47.582Z,3.50
2019-05-16T11:44:17.618Z,3.17
2019-05-16T11:46:49.208Z,3.30
2019-05-16T11:49:16.718Z,3.60
2019-05-16T11:51:47.170Z,3.37
2019-05-16T11:54:15.513Z,3.20
2019-05-16T11:56:46.277Z,3.30
2019-05-16T11:59:14.335Z,4.20
2019-05-16T12:01:42.905Z,6.30
2019-05-16T12:04:13.719Z,4.13
2019-05-16T12:06:46.866Z,5.37
2019-05-16T12:09:17.595Z,4.20
2019-05-16T12:11:45.174Z,3.37
2019-05-16T12:14:13.739Z,5.37
2019-05-16T12:16:42.277Z,3.97
2019-05-16T12:19:10.859Z,5.53
2019-05-16T12:21:39.443Z,4.27
2019-05-16T12:24:08.031Z,3.80
2019-05-16T12:26:37.233Z,5.20
2019-05-16T12:29:07.024Z,3.63
2019-05-16T12:31:37.388Z,4.67
2019-05-16T12:34:09.750Z,4.40
2019-05-16T12:36:37.897Z,3.90
2019-05-16T12:39:08.140Z,5.00
2019-05-16T12:41:40.877Z,5.03
2019-05-16T12:44:08.144Z,4.77
2019-05-16T12:46:36.716Z,4.97
2019-05-16T12:49:07.033Z,5.10
2019-05-16T12:51:36.995Z,5.77
2019-05-16T12:54:07.560Z,6.20
2019-05-16T12:56:37.755Z,6.40
2019-05-16T12:59:07.653Z,5.03
2019-05-16T13:01:38.520Z,6.20
2019-05-16T13:04:06.495Z,6.80
2019-05-16T13:06:37.137Z,6.50
2019-05-16T13:09:07.436Z,5.77
2019-05-16T13:11:37.777Z,5.77
2019-05-16T13:14:10.638Z,7.93
2019-05-16T13:16:37.615Z,8.20
2019-05-16T13:19:07.038Z,7.57
2019-05-16T13:21:38.063Z,10.70
2019-05-16T13:24:06.949Z,9.03
2019-05-16T13:26:37.333Z,8.10
2019-05-16T13:29:10.389Z,7.83
2019-05-16T13:31:38.953Z,8.20
2019-05-16T13:34:07.873Z,7.87
2019-05-16T13:36:38.987Z,9.80
2019-05-16T13:39:08.165Z,11.53
2019-05-16T13:41:37.894Z,9.27
2019-05-16T13:44:17.636Z,8.80
2019-05-16T13:46:37.278Z,8.50
2019-05-16T13:49:07.277Z,9.43
2019-05-16T13:51:37.373Z,10.33
2019-05-16T13:54:07.047Z,11.03
2019-05-16T13:56:37.755Z,10.63
2019-05-16T13:59:07.722Z,11.40
2019-05-16T14:01:36.859Z,12.80
2019-05-16T14:04:09.496Z,11.30
2019-05-16T14:06:36.798Z,13.77
2019-05-16T14:09:07.713Z,15.70
2019-05-16T14:11:36.733Z,15.50
2019-05-16T14:14:06.125Z,14.97
2019-05-16T14:16:34.672Z,12.20
2019-05-16T14:19:03.266Z,18.30
2019-05-16T14:21:31.837Z,14.00
2019-05-16T14:24:00.447Z,13.03
2019-05-16T14:26:29.021Z,14.67
2019-05-16T14:28:58.001Z,16.00
2019-05-16T14:31:26.588Z,14.43
2019-05-16T14:33:56.761Z,16.40
2019-05-16T14:36:27.875Z,15.50
2019-05-16T14:38:57.510Z,17.27
2019-05-16T14:41:27.849Z,14.87
2019-05-16T14:43:56.267Z,18.20
2019-05-16T14:46:27.180Z,20.70
2019-05-16T14:48:55.120Z,12.57
2019-05-16T14:51:23.687Z,13.87
2019-05-16T14:53:52.289Z,13.50
2019-05-16T14:56:20.878Z,12.40
2019-05-16T14:58:49.506Z,11.40
2019-05-16T15:01:18.067Z,10.90
2019-05-16T15:03:47.326Z,11.40
2019-05-16T15:06:18.258Z,11.07
2019-05-16T15:08:47.525Z,10.33
2019-05-16T15:11:17.943Z,9.80
2019-05-16T15:13:46.582Z,9.63
2019-05-16T15:16:16.988Z,14.20
2019-05-16T15:18:47.381Z,10.73
2019-05-16T15:21:17.571Z,10.90
2019-05-16T15:23:46.014Z,10.20
2019-05-16T15:26:14.605Z,8.20
2019-05-16T15:28:43.202Z,8.90
2019-05-16T15:31:11.837Z,8.23
2019-05-16T15:33:40.429Z,9.07
2019-05-16T15:36:09.016Z,9.40
2019-05-16T15:38:37.510Z,10.20
2019-05-16T15:41:08.317Z,11.93
2019-05-16T15:43:37.069Z,10.20
2019-05-16T15:46:08.211Z,9.33
2019-05-16T15:48:37.285Z,8.40
2019-05-16T15:51:08.576Z,8.77
2019-05-16T15:53:36.602Z,11.10
2019-05-16T15:56:09.636Z,8.70
2019-05-16T15:58:37.389Z,8.53
2019-05-16T16:01:07.354Z,14.33
2019-05-16T16:03:38.168Z,7.40
2019-05-16T16:06:06.951Z,11.43
2019-05-16T16:08:37.445Z,14.00
2019-05-16T16:11:07.355Z,12.60
2019-05-16T16:13:37.411Z,10.83
2019-05-16T16:16:10.230Z,7.73
2019-05-16T16:18:37.629Z,6.80
2019-05-16T16:21:07.506Z,7.20
2019-05-16T16:23:37.791Z,13.20
2019-05-16T16:26:07.356Z,10.63
2019-05-16T16:28:38.234Z,10.10
2019-05-16T16:31:07.574Z,8.87
2019-05-16T16:33:37.377Z,9.97
2019-05-16T16:36:07.931Z,8.97
2019-05-16T16:38:37.223Z,9.97
2019-05-16T16:41:08.073Z,12.63
2019-05-16T16:43:37.271Z,9.80
2019-05-16T16:46:12.869Z,12.93
2019-05-16T16:48:36.574Z,14.50
2019-05-16T16:51:06.543Z,11.20
2019-05-16T16:53:37.763Z,10.83
2019-05-16T16:56:07.492Z,10.37
2019-05-16T16:58:37.238Z,9.70
2019-05-16T17:01:08.238Z,11.03
2019-05-16T17:03:36.862Z,10.43
2019-05-16T17:06:05.822Z,13.30
2019-05-16T17:08:37.162Z,13.07
2019-05-16T17:11:07.293Z,11.40
2019-05-16T17:13:36.611Z,13.27
2019-05-16T17:16:18.008Z,10.00
2019-05-16T17:18:36.886Z,10.70
2019-05-16T17:21:07.851Z,9.70
2019-05-16T17:23:37.055Z,10.40
2019-05-16T17:26:07.244Z,9.53
2019-05-16T17:28:37.354Z,11.33
2019-05-16T17:31:07.223Z,10.10
2019-05-16T17:33:38.217Z,8.40
2019-05-16T17:36:09.100Z,17.87
2019-05-16T17:38:37.233Z,9.47
2019-05-16T17:41:07.688Z,8.57
2019-05-16T17:43:36.382Z,9.50
2019-05-16T17:46:07.117Z,9.63
2019-05-16T17:48:38.247Z,10.43
2019-05-16T17:51:07.112Z,10.40
2019-05-16T17:53:37.420Z,12.90
2019-05-16T17:56:07.007Z,10.70
2019-05-16T17:58:35.877Z,9.07
2019-05-16T18:01:06.815Z,8.90
2019-05-16T18:03:37.230Z,7.73
2019-05-16T18:06:06.372Z,11.17
2019-05-16T18:08:37.577Z,10.30
2019-05-16T18:11:07.181Z,8.50
2019-05-16T18:13:37.067Z,12.83
2019-05-16T18:16:07.794Z,14.53
2019-05-16T18:18:37.854Z,8.93
2019-05-16T18:21:07.102Z,10.60
2019-05-16T18:23:36.862Z,8.40
2019-05-16T18:26:08.377Z,11.30
2019-05-16T18:28:37.579Z,10.40
2019-05-16T18:31:06.369Z,12.70
2019-05-16T18:33:37.146Z,10.40
2019-05-16T18:36:08.271Z,9.77
2019-05-16T18:38:39.776Z,11.20
2019-05-16T18:41:09.164Z,11.63
2019-05-16T18:43:37.915Z,11.43
2019-05-16T18:46:07.444Z,10.80
2019-05-16T18:48:36.660Z,11.67
2019-05-16T18:51:06.665Z,11.47
2019-05-16T18:53:37.389Z,12.63
2019-05-16T18:56:07.879Z,10.83
2019-05-16T18:58:38.223Z,14.27
2019-05-16T19:01:07.012Z,12.67
2019-05-16T19:03:35.680Z,14.33
2019-05-16T19:06:04.590Z,12.97
2019-05-16T19:08:33.258Z,13.90
2019-05-16T19:11:07.181Z,12.37
2019-05-16T19:13:36.737Z,16.00
2019-05-16T19:16:06.307Z,17.73
2019-05-16T19:18:36.911Z,14.70
2019-05-16T19:21:08.159Z,11.80
2019-05-16T19:23:37.589Z,15.50
2019-05-16T19:26:07.318Z,15.13
2019-05-16T19:28:37.307Z,17.43
2019-05-16T19:31:06.897Z,18.10
2019-05-16T19:33:36.343Z,17.10
2019-05-16T19:36:07.278Z,20.57
2019-05-16T19:38:37.520Z,16.40
2019-05-16T19:41:08.097Z,17.03
2019-05-16T19:43:37.218Z,20.37
2019-05-16T19:46:07.606Z,17.10
2019-05-16T19:48:37.303Z,16.83
2019-05-16T19:51:07.489Z,17.47
2019-05-16T19:53:37.713Z,15.60
2019-05-16T19:56:07.233Z,15.83
2019-05-16T19:58:37.209Z,20.50
2019-05-16T20:01:06.125Z,18.20
2019-05-16T20:03:36.529Z,22.13
2019-05-16T20:06:07.498Z,20.90
2019-05-16T20:08:38.275Z,20.37
2019-05-16T20:11:07.447Z,24.23
2019-05-16T20:13:36.765Z,19.70
2019-05-16T20:16:05.595Z,19.77
2019-05-16T20:18:34.239Z,21.30
2019-05-16T20:21:03.040Z,21.20
2019-05-16T20:23:31.769Z,20.50
2019-05-16T20:26:00.365Z,16.07
2019-05-16T20:28:29.020Z,19.93
2019-05-16T20:30:59.835Z,19.30
2019-05-16T20:33:28.300Z,21.20
2019-05-16T20:35:57.455Z,17.03
2019-05-16T20:38:26.801Z,17.97
2019-05-16T20:40:59.745Z,18.17
2019-05-16T20:43:27.237Z,19.67
2019-05-16T20:46:01.795Z,19.00
2019-05-16T20:48:30.480Z,20.53
2019-05-16T20:50:59.117Z,20.63
2019-05-16T20:53:27.731Z,28.03
2019-05-16T20:55:57.339Z,17.43
2019-05-16T20:58:26.269Z,18.93
2019-05-16T21:00:59.531Z,21.40
2019-05-16T21:03:27.074Z,23.07
2019-05-16T21:05:57.905Z,21.40
2019-05-16T21:08:26.609Z,20.13
2019-05-16T21:10:57.023Z,20.63
2019-05-16T21:13:25.819Z,22.00
2019-05-16T21:15:54.389Z,18.97
2019-05-16T21:18:22.972Z,23.90
2019-05-16T21:20:51.500Z,24.10
2019-05-16T21:23:20.034Z,19.37
2019-05-16T21:25:48.560Z,20.50
2019-05-16T21:28:19.843Z,18.60
2019-05-16T21:30:47.528Z,19.20
2019-05-16T21:33:16.548Z,23.73
2019-05-16T21:35:46.962Z,24.93
2019-05-16T21:38:16.496Z,22.40
2019-05-16T21:40:45.449Z,22.10
2019-05-16T21:43:14.036Z,24.23
2019-05-16T21:45:43.403Z,20.80
2019-05-16T21:48:11.993Z,22.10
2019-05-16T21:50:40.591Z,24.37
2019-05-16T21:53:09.140Z,23.50
2019-05-16T21:55:37.741Z,24.23
2019-05-16T21:58:06.293Z,24.37
2019-05-16T22:00:47.577Z,22.23
2019-05-16T22:03:17.724Z,30.97
2019-05-16T22:05:46.621Z,57.73
2019-05-16T22:08:16.981Z,58.17
2019-05-16T22:10:46.758Z,40.57
2019-05-16T22:13:15.459Z,27.80
2019-05-16T22:15:46.200Z,22.70
2019-05-16T22:18:16.393Z,17.00
2019-05-16T22:20:47.083Z,16.23
2019-05-16T22:23:14.768Z,25.50
2019-05-16T22:25:43.395Z,28.93
2019-05-16T22:28:11.958Z,21.23
2019-05-16T22:30:40.598Z,23.27
2019-05-16T22:33:09.388Z,92.27
2019-05-16T22:35:37.980Z,200.53
2019-05-16T22:38:06.739Z,186.97
2019-05-16T22:40:37.394Z,115.13
2019-05-16T22:43:07.271Z,65.00
2019-05-16T22:45:37.383Z,78.77
2019-05-16T22:48:06.988Z,74.43
2019-05-16T22:50:36.599Z,47.93
2019-05-16T22:53:06.391Z,49.67
2019-05-16T22:55:37.174Z,62.00
2019-05-16T22:58:07.422Z,40.57
2019-05-16T23:00:41.070Z,32.27
2019-05-16T23:03:07.717Z,37.50
2019-05-16T23:05:36.854Z,19.07
2019-05-16T23:08:09.629Z,26.03
2019-05-16T23:10:36.767Z,19.57
2019-05-16T23:13:06.782Z,44.17
2019-05-16T23:15:35.545Z,44.47
2019-05-16T23:18:06.794Z,39.73
2019-05-16T23:20:36.752Z,65.90
2019-05-16T23:23:06.912Z,36.70
2019-05-16T23:25:36.897Z,71.60
2019-05-16T23:28:07.382Z,88.77
2019-05-16T23:30:36.608Z,78.10
2019-05-16T23:33:07.127Z,96.30
2019-05-16T23:35:37.507Z,65.40
2019-05-16T23:38:18.643Z,49.80
2019-05-16T23:40:37.402Z,42.27
2019-05-16T23:43:07.670Z,42.83
2019-05-16T23:45:37.503Z,43.37
2019-05-16T23:48:10.201Z,35.10
2019-05-16T23:50:36.793Z,21.53
2019-05-16T23:53:07.471Z,18.83
2019-05-16T23:55:37.267Z,8.83
2019-05-16T23:58:07.038Z,10.97
